Robert G. Stone, Jr. — WDD4596 — position and weather

sailwx.info

Track history (hours):
 
Tides and Currents Weather Stations Pressure Air Temp Water Temp Dewpoint Dewpoint Depression Visibility Wind Speed Wind Dir Waves Ship Positions

Robert G. Stone, Jr.

Owner: Kirby Inland Marine, LP, Houston, TX. More information available from US FCC via Universal Licensing System and Coast Guard Vessel Documentation Center.

Last reported at 2017-Mar-28 18:24 UTC. Time now 2017-Mar-29 18:52 UTC.
Position N 30°04' W 093°38'.

Length 209 m; draft 2.7 m.

Type: . MMSI: 367146780.

Date/timePositionNaut miles runAvg speedWind from/ knotsBaromVisibWave heightAir tempDewpointWater temp
2017-Mar-28 18:24N 30°04' W 093°38'5 6.5
2017-Mar-28 17:33N 30°04' W 093°32'7 6.8
2017-Mar-28 16:33N 30°04' W 093°24'6 5.7
2017-Mar-28 15:33N 30°06' W 093°19'1 1.3
2017-Mar-28 14:33N 30°05' W 093°18'1 1.3
2017-Mar-28 13:33N 30°04' W 093°16'0 0.0
2017-Mar-28 12:33N 30°04' W 093°16'0 0.1
2017-Mar-28 11:33N 30°04' W 093°16'1 1.3
2017-Mar-28 10:33N 30°03' W 093°16'6 6.1
2017-Mar-28 09:33N 29°58' W 093°12'6 5.9
2017-Mar-28 08:33N 29°56' W 093°05'2 1.6
2017-Mar-28 07:33N 29°56' W 093°04'35 5.9
2017-Mar-28 01:33N 29°52' W 092°23'6 5.8
2017-Mar-28 00:33N 29°49' W 092°17'5 4.8
2017-Mar-27 23:33N 29°47' W 092°12'1 1.0
2017-Mar-27 22:33N 29°47' W 092°11'2 1.6
2017-Mar-27 21:33N 29°47' W 092°09'7 7.3
2017-Mar-27 20:33N 29°49' W 092°01'7 6.7
2017-Mar-27 19:27N 29°51' W 091°53'136 3.6
2017-Mar-26 05:15N 31°60' W 091°05'6 9.2
2017-Mar-26 04:33N 32°06' W 091°06'7 7.3
2017-Mar-26 03:33N 32°11' W 090°60'1010.1
2017-Mar-26 02:33N 32°20' W 090°54'8 8.3
2017-Mar-26 01:33N 32°26' W 091°01'9 8.9
2017-Mar-26 00:33N 32°34' W 091°06'  
Track history (hours):
 
Tides and Currents Weather Stations Pressure Air Temp Water Temp Dewpoint Dewpoint Depression Visibility Wind Speed Wind Dir Waves Ship Positions

Robert G. Stone, Jr.

Owner: Kirby Inland Marine, LP, Houston, TX. More information available from US FCC via Universal Licensing System and Coast Guard Vessel Documentation Center.

Last reported at 2017-Mar-28 18:24 UTC. Time now 2017-Mar-29 18:52 UTC.
Position N 30°04' W 093°38'.

Length 209 m; draft 2.7 m.

Type: . MMSI: 367146780.

Date/timePositionNaut miles runAvg speedWind from/ knotsBaromVisibWave heightAir tempDewpointWater temp
2017-Mar-28 18:24N 30°04' W 093°38'5 6.5
2017-Mar-28 17:33N 30°04' W 093°32'7 6.8
2017-Mar-28 16:33N 30°04' W 093°24'6 5.7
2017-Mar-28 15:33N 30°06' W 093°19'1 1.3
2017-Mar-28 14:33N 30°05' W 093°18'1 1.3
2017-Mar-28 13:33N 30°04' W 093°16'0 0.0
2017-Mar-28 12:33N 30°04' W 093°16'0 0.1
2017-Mar-28 11:33N 30°04' W 093°16'1 1.3
2017-Mar-28 10:33N 30°03' W 093°16'6 6.1
2017-Mar-28 09:33N 29°58' W 093°12'6 5.9
2017-Mar-28 08:33N 29°56' W 093°05'2 1.6
2017-Mar-28 07:33N 29°56' W 093°04'35 5.9
2017-Mar-28 01:33N 29°52' W 092°23'6 5.8
2017-Mar-28 00:33N 29°49' W 092°17'5 4.8
2017-Mar-27 23:33N 29°47' W 092°12'1 1.0
2017-Mar-27 22:33N 29°47' W 092°11'2 1.6
2017-Mar-27 21:33N 29°47' W 092°09'7 7.3
2017-Mar-27 20:33N 29°49' W 092°01'7 6.7
2017-Mar-27 19:27N 29°51' W 091°53'136 3.6
2017-Mar-26 05:15N 31°60' W 091°05'6 9.2
2017-Mar-26 04:33N 32°06' W 091°06'7 7.3
2017-Mar-26 03:33N 32°11' W 090°60'1010.1
2017-Mar-26 02:33N 32°20' W 090°54'8 8.3
2017-Mar-26 01:33N 32°26' W 091°01'9 8.9
2017-Mar-26 00:33N 32°34' W 091°06'  

Dump ship's entire track history